sensor_id;sensor_type;location;lat;lon;timestamp;P1;durP1;ratioP1;P2;durP2;ratioP2
73315;SDS011;61545;53.726;-0.444;2022-12-15T00:03:12;4.9;;;2;;
73315;SDS011;61545;53.726;-0.444;2022-12-15T00:08:12;4.9;;;2;;
73315;SDS011;61545;53.726;-0.444;2022-12-15T00:13:12;4.7;;;2;;
73315;SDS011;61545;53.726;-0.444;2022-12-15T00:18:12;5.8;;;1.8;;
73315;SDS011;61545;53.726;-0.444;2022-12-15T00:23:12;4.1;;;1.7;;
73315;SDS011;61545;53.726;-0.444;2022-12-15T00:28:12;7.3;;;2.3;;
73315;SDS011;61545;53.726;-0.444;2022-12-15T00:33:12;5.2;;;2;;
73315;SDS011;61545;53.726;-0.444;2022-12-15T00:38:13;5.2;;;2;;
73315;SDS011;61545;53.726;-0.444;2022-12-15T00:43:12;5.3;;;2.1;;
73315;SDS011;61545;53.726;-0.444;2022-12-15T00:48:12;6.4;;;2.1;;
73315;SDS011;61545;53.726;-0.444;2022-12-15T00:53:12;4.1;;;1.5;;
73315;SDS011;61545;53.726;-0.444;2022-12-15T00:58:12;5.7;;;2;;
73315;SDS011;61545;53.726;-0.444;2022-12-15T01:03:13;7.9;;;2;;
73315;SDS011;61545;53.726;-0.444;2022-12-15T01:08:12;7.9;;;2;;
73315;SDS011;61545;53.726;-0.444;2022-12-15T01:13:12;6.8;;;1.9;;
73315;SDS011;61545;53.726;-0.444;2022-12-15T01:18:12;8.3;;;2.3;;
73315;SDS011;61545;53.726;-0.444;2022-12-15T01:23:12;5.9;;;2.1;;
73315;SDS011;61545;53.726;-0.444;2022-12-15T01:28:12;6.2;;;2;;
73315;SDS011;61545;53.726;-0.444;2022-12-15T01:33:12;6.7;;;1.6;;
73315;SDS011;61545;53.726;-0.444;2022-12-15T01:38:12;6.7;;;1.6;;
73315;SDS011;61545;53.726;-0.444;2022-12-15T01:43:13;8.7;;;1.9;;
73315;SDS011;61545;53.726;-0.444;2022-12-15T01:48:13;7.6;;;1.8;;
73315;SDS011;61545;53.726;-0.444;2022-12-15T01:53:12;8.8;;;2.3;;
73315;SDS011;61545;53.726;-0.444;2022-12-15T01:58:12;6.2;;;2;;
73315;SDS011;61545;53.726;-0.444;2022-12-15T02:03:12;5.1;;;2;;
73315;SDS011;61545;53.726;-0.444;2022-12-15T02:08:12;5.1;;;2;;
73315;SDS011;61545;53.726;-0.444;2022-12-15T02:13:14;7.0;;;2.1;;
73315;SDS011;61545;53.726;-0.444;2022-12-15T02:18:15;4.5;;;1.5;;
73315;SDS011;61545;53.726;-0.444;2022-12-15T02:23:25;7.2;;;1.7;;
73315;SDS011;61545;53.726;-0.444;2022-12-15T02:28:13;7.0;;;1.9;;
73315;SDS011;61545;53.726;-0.444;2022-12-15T02:33:15;5.7;;;1.9;;
73315;SDS011;61545;53.726;-0.444;2022-12-15T02:38:12;5.7;;;1.9;;
73315;SDS011;61545;53.726;-0.444;2022-12-15T02:43:12;5.8;;;1.5;;
73315;SDS011;61545;53.726;-0.444;2022-12-15T02:48:20;6.5;;;1.5;;
73315;SDS011;61545;53.726;-0.444;2022-12-15T02:53:19;4.3;;;1.5;;
73315;SDS011;61545;53.726;-0.444;2022-12-15T02:58:15;4.9;;;1.4;;
73315;SDS011;61545;53.726;-0.444;2022-12-15T03:03:12;6.8;;;1.6;;
73315;SDS011;61545;53.726;-0.444;2022-12-15T03:08:12;6.8;;;1.6;;
73315;SDS011;61545;53.726;-0.444;2022-12-15T03:13:12;7.6;;;1.6;;
73315;SDS011;61545;53.726;-0.444;2022-12-15T03:18:12;3.8;;;1.5;;
73315;SDS011;61545;53.726;-0.444;2022-12-15T03:23:12;4.8;;;1.5;;
73315;SDS011;61545;53.726;-0.444;2022-12-15T03:28:12;3.8;;;1.3;;
73315;SDS011;61545;53.726;-0.444;2022-12-15T03:33:12;3.6;;;1.4;;
73315;SDS011;61545;53.726;-0.444;2022-12-15T03:38:12;3.6;;;1.4;;
73315;SDS011;61545;53.726;-0.444;2022-12-15T03:43:12;5.7;;;1.6;;
73315;SDS011;61545;53.726;-0.444;2022-12-15T03:48:12;2.9;;;1.5;;
73315;SDS011;61545;53.726;-0.444;2022-12-15T03:53:12;6.7;;;1.5;;
73315;SDS011;61545;53.726;-0.444;2022-12-15T03:58:12;8.3;;;1.7;;
73315;SDS011;61545;53.726;-0.444;2022-12-15T04:03:12;7.5;;;1.4;;
73315;SDS011;61545;53.726;-0.444;2022-12-15T04:08:12;7.5;;;1.4;;
73315;SDS011;61545;53.726;-0.444;2022-12-15T04:13:12;6.1;;;1.5;;
73315;SDS011;61545;53.726;-0.444;2022-12-15T04:18:12;4.5;;;1.3;;
73315;SDS011;61545;53.726;-0.444;2022-12-15T04:23:12;4.4;;;1.5;;
73315;SDS011;61545;53.726;-0.444;2022-12-15T04:28:12;3.9;;;1.5;;
73315;SDS011;61545;53.726;-0.444;2022-12-15T04:33:12;5.4;;;1.4;;
73315;SDS011;61545;53.726;-0.444;2022-12-15T04:38:12;5.4;;;1.4;;
73315;SDS011;61545;53.726;-0.444;2022-12-15T04:43:12;6.4;;;1.3;;
73315;SDS011;61545;53.726;-0.444;2022-12-15T04:48:12;3.6;;;1.1;;
73315;SDS011;61545;53.726;-0.444;2022-12-15T04:53:13;4.0;;;1.6;;
73315;SDS011;61545;53.726;-0.444;2022-12-15T04:58:12;4.0;;;1.2;;
73315;SDS011;61545;53.726;-0.444;2022-12-15T05:03:12;6.7;;;1.5;;
73315;SDS011;61545;53.726;-0.444;2022-12-15T05:08:12;6.7;;;1.5;;
73315;SDS011;61545;53.726;-0.444;2022-12-15T05:13:12;7.0;;;1.3;;
73315;SDS011;61545;53.726;-0.444;2022-12-15T05:18:12;7.7;;;2.1;;
73315;SDS011;61545;53.726;-0.444;2022-12-15T05:23:12;3.0;;;1.3;;
73315;SDS011;61545;53.726;-0.444;2022-12-15T05:28:12;4.0;;;1.3;;
73315;SDS011;61545;53.726;-0.444;2022-12-15T05:33:12;4.2;;;1.7;;
73315;SDS011;61545;53.726;-0.444;2022-12-15T05:38:12;4.2;;;1.7;;
73315;SDS011;61545;53.726;-0.444;2022-12-15T05:43:12;4.8;;;1.6;;
73315;SDS011;61545;53.726;-0.444;2022-12-15T05:48:12;3.6;;;1.5;;
73315;SDS011;61545;53.726;-0.444;2022-12-15T05:53:12;4.1;;;1.6;;
73315;SDS011;61545;53.726;-0.444;2022-12-15T05:58:12;4.7;;;1.9;;
73315;SDS011;61545;53.726;-0.444;2022-12-15T06:03:12;3.3;;;1.4;;
73315;SDS011;61545;53.726;-0.444;2022-12-15T06:08:12;3.3;;;1.4;;
73315;SDS011;61545;53.726;-0.444;2022-12-15T06:13:12;5.0;;;1.6;;
73315;SDS011;61545;53.726;-0.444;2022-12-15T06:18:12;7.0;;;1.8;;
73315;SDS011;61545;53.726;-0.444;2022-12-15T06:23:12;3.5;;;1.6;;
73315;SDS011;61545;53.726;-0.444;2022-12-15T06:28:12;3.4;;;1.3;;
73315;SDS011;61545;53.726;-0.444;2022-12-15T06:33:12;3.1;;;1.3;;
73315;SDS011;61545;53.726;-0.444;2022-12-15T06:38:12;3.1;;;1.3;;
73315;SDS011;61545;53.726;-0.444;2022-12-15T06:43:12;4.2;;;1.5;;
73315;SDS011;61545;53.726;-0.444;2022-12-15T06:48:12;2.7;;;1.3;;
73315;SDS011;61545;53.726;-0.444;2022-12-15T06:53:12;5.1;;;1.5;;
73315;SDS011;61545;53.726;-0.444;2022-12-15T06:58:12;4.3;;;1.5;;
73315;SDS011;61545;53.726;-0.444;2022-12-15T07:03:13;4.2;;;1.5;;
73315;SDS011;61545;53.726;-0.444;2022-12-15T07:08:13;4.2;;;1.5;;
73315;SDS011;61545;53.726;-0.444;2022-12-15T07:13:12;5.4;;;1.2;;
73315;SDS011;61545;53.726;-0.444;2022-12-15T07:18:12;5.8;;;1.6;;
73315;SDS011;61545;53.726;-0.444;2022-12-15T07:23:12;2.8;;;0.9;;
73315;SDS011;61545;53.726;-0.444;2022-12-15T07:28:12;2.5;;;1;;
73315;SDS011;61545;53.726;-0.444;2022-12-15T07:33:12;5.4;;;1;;
73315;SDS011;61545;53.726;-0.444;2022-12-15T07:38:12;5.4;;;1;;
73315;SDS011;61545;53.726;-0.444;2022-12-15T07:43:12;1.5;;;0.5;;
73315;SDS011;61545;53.726;-0.444;2022-12-15T07:48:12;4.2;;;1;;
73315;SDS011;61545;53.726;-0.444;2022-12-15T07:53:12;4.8;;;1.5;;
73315;SDS011;61545;53.726;-0.444;2022-12-15T07:58:12;2.1;;;0.9;;
73315;SDS011;61545;53.726;-0.444;2022-12-15T08:03:12;2.4;;;0.9;;
73315;SDS011;61545;53.726;-0.444;2022-12-15T08:08:12;2.4;;;0.9;;
73315;SDS011;61545;53.726;-0.444;2022-12-15T08:13:12;4.2;;;0.7;;
73315;SDS011;61545;53.726;-0.444;2022-12-15T08:18:12;4.0;;;0.9;;
73315;SDS011;61545;53.726;-0.444;2022-12-15T08:23:12;3.6;;;0.7;;
73315;SDS011;61545;53.726;-0.444;2022-12-15T08:28:12;4.0;;;0.7;;
73315;SDS011;61545;53.726;-0.444;2022-12-15T08:33:12;4.6;;;0.7;;
73315;SDS011;61545;53.726;-0.444;2022-12-15T08:38:12;4.6;;;0.7;;
73315;SDS011;61545;53.726;-0.444;2022-12-15T08:43:12;2.3;;;0.9;;
73315;SDS011;61545;53.726;-0.444;2022-12-15T08:48:12;4.6;;;1;;
73315;SDS011;61545;53.726;-0.444;2022-12-15T08:53:12;3.8;;;0.7;;
73315;SDS011;61545;53.726;-0.444;2022-12-15T08:58:12;3.6;;;0.7;;
73315;SDS011;61545;53.726;-0.444;2022-12-15T09:03:12;2.8;;;0.8;;
73315;SDS011;61545;53.726;-0.444;2022-12-15T09:08:12;2.8;;;0.8;;
73315;SDS011;61545;53.726;-0.444;2022-12-15T09:13:12;5.0;;;1.3;;
73315;SDS011;61545;53.726;-0.444;2022-12-15T09:18:12;4.3;;;1.1;;
73315;SDS011;61545;53.726;-0.444;2022-12-15T09:23:12;4.2;;;0.8;;
73315;SDS011;61545;53.726;-0.444;2022-12-15T09:28:12;4.6;;;1;;
73315;SDS011;61545;53.726;-0.444;2022-12-15T09:33:12;4.0;;;1.2;;
73315;SDS011;61545;53.726;-0.444;2022-12-15T09:38:12;4.0;;;1.2;;
73315;SDS011;61545;53.726;-0.444;2022-12-15T09:43:17;5.1;;;1.1;;
73315;SDS011;61545;53.726;-0.444;2022-12-15T09:48:14;3.9;;;0.9;;
73315;SDS011;61545;53.726;-0.444;2022-12-15T09:53:13;2.7;;;0.8;;
73315;SDS011;61545;53.726;-0.444;2022-12-15T09:58:15;2.6;;;0.7;;
73315;SDS011;61545;53.726;-0.444;2022-12-15T10:03:22;1.5;;;0.7;;
73315;SDS011;61545;53.726;-0.444;2022-12-15T10:08:12;1.5;;;0.7;;
73315;SDS011;61545;53.726;-0.444;2022-12-15T10:13:24;3.1;;;0.8;;
73315;SDS011;61545;53.726;-0.444;2022-12-15T10:18:16;2.8;;;0.9;;
73315;SDS011;61545;53.726;-0.444;2022-12-15T10:23:13;5.0;;;0.9;;
73315;SDS011;61545;53.726;-0.444;2022-12-15T10:28:27;4.4;;;0.8;;
73315;SDS011;61545;53.726;-0.444;2022-12-15T10:33:16;4.0;;;0.9;;
73315;SDS011;61545;53.726;-0.444;2022-12-15T10:38:20;4.0;;;0.9;;
73315;SDS011;61545;53.726;-0.444;2022-12-15T10:43:13;3.2;;;1;;
73315;SDS011;61545;53.726;-0.444;2022-12-15T10:48:18;3.1;;;1.1;;
73315;SDS011;61545;53.726;-0.444;2022-12-15T10:53:32;4.2;;;1.1;;
73315;SDS011;61545;53.726;-0.444;2022-12-15T10:58:15;2.9;;;1;;
73315;SDS011;61545;53.726;-0.444;2022-12-15T11:03:20;4.8;;;0.9;;
73315;SDS011;61545;53.726;-0.444;2022-12-15T11:08:13;4.8;;;0.9;;
73315;SDS011;61545;53.726;-0.444;2022-12-15T11:13:13;4.3;;;0.9;;
73315;SDS011;61545;53.726;-0.444;2022-12-15T11:18:21;4.5;;;1.1;;
73315;SDS011;61545;53.726;-0.444;2022-12-15T11:23:15;2.4;;;0.8;;
73315;SDS011;61545;53.726;-0.444;2022-12-15T11:28:14;2.6;;;1.2;;
73315;SDS011;61545;53.726;-0.444;2022-12-15T11:33:12;2.8;;;1.1;;
73315;SDS011;61545;53.726;-0.444;2022-12-15T11:38:16;2.8;;;1.1;;
73315;SDS011;61545;53.726;-0.444;2022-12-15T11:43:21;6.3;;;1.1;;
73315;SDS011;61545;53.726;-0.444;2022-12-15T11:48:13;3.6;;;1;;
73315;SDS011;61545;53.726;-0.444;2022-12-15T11:53:17;4.8;;;1;;
73315;SDS011;61545;53.726;-0.444;2022-12-15T11:58:22;2.5;;;1;;
73315;SDS011;61545;53.726;-0.444;2022-12-15T12:03:19;2.9;;;1.2;;
73315;SDS011;61545;53.726;-0.444;2022-12-15T12:08:19;2.9;;;1.2;;
73315;SDS011;61545;53.726;-0.444;2022-12-15T12:13:16;4.3;;;1.2;;
73315;SDS011;61545;53.726;-0.444;2022-12-15T12:18:16;3.5;;;1.2;;
73315;SDS011;61545;53.726;-0.444;2022-12-15T12:23:14;2.2;;;0.8;;
73315;SDS011;61545;53.726;-0.444;2022-12-15T12:28:14;6.3;;;1.7;;
73315;SDS011;61545;53.726;-0.444;2022-12-15T12:33:16;5.4;;;1.4;;
73315;SDS011;61545;53.726;-0.444;2022-12-15T12:38:12;5.4;;;1.4;;
73315;SDS011;61545;53.726;-0.444;2022-12-15T12:43:20;4.4;;;1.4;;
73315;SDS011;61545;53.726;-0.444;2022-12-15T12:48:14;4.6;;;1.6;;
73315;SDS011;61545;53.726;-0.444;2022-12-15T12:53:23;6.8;;;1.8;;
73315;SDS011;61545;53.726;-0.444;2022-12-15T12:58:44;5.7;;;1.5;;
73315;SDS011;61545;53.726;-0.444;2022-12-15T13:03:15;4.6;;;1.3;;
73315;SDS011;61545;53.726;-0.444;2022-12-15T13:08:46;4.6;;;1.3;;
73315;SDS011;61545;53.726;-0.444;2022-12-15T13:13:20;2.9;;;1.2;;
73315;SDS011;61545;53.726;-0.444;2022-12-15T13:18:14;4.2;;;1.2;;
73315;SDS011;61545;53.726;-0.444;2022-12-15T13:23:33;3.8;;;1;;
73315;SDS011;61545;53.726;-0.444;2022-12-15T13:28:18;3.7;;;1.1;;
73315;SDS011;61545;53.726;-0.444;2022-12-15T13:33:13;6.7;;;1;;
73315;SDS011;61545;53.726;-0.444;2022-12-15T13:38:16;6.7;;;1;;
73315;SDS011;61545;53.726;-0.444;2022-12-15T13:43:35;3.1;;;0.8;;
73315;SDS011;61545;53.726;-0.444;2022-12-15T13:48:32;2.7;;;1;;
73315;SDS011;61545;53.726;-0.444;2022-12-15T13:53:17;3.2;;;0.9;;
73315;SDS011;61545;53.726;-0.444;2022-12-15T13:58:13;6.2;;;0.9;;
73315;SDS011;61545;53.726;-0.444;2022-12-15T14:03:12;4.3;;;0.8;;
73315;SDS011;61545;53.726;-0.444;2022-12-15T14:08:13;4.3;;;0.8;;
73315;SDS011;61545;53.726;-0.444;2022-12-15T14:13:15;6.4;;;0.9;;
73315;SDS011;61545;53.726;-0.444;2022-12-15T14:18:21;9.6;;;1.3;;
73315;SDS011;61545;53.726;-0.444;2022-12-15T14:23:17;6.4;;;1.5;;
73315;SDS011;61545;53.726;-0.444;2022-12-15T14:28:23;5.7;;;1.7;;
73315;SDS011;61545;53.726;-0.444;2022-12-15T14:33:13;5.9;;;1.1;;
73315;SDS011;61545;53.726;-0.444;2022-12-15T14:38:13;5.9;;;1.1;;
73315;SDS011;61545;53.726;-0.444;2022-12-15T14:43:16;11.8;;;1.8;;
73315;SDS011;61545;53.726;-0.444;2022-12-15T14:48:24;5.6;;;1.3;;
73315;SDS011;61545;53.726;-0.444;2022-12-15T14:53:13;6.0;;;1.9;;
73315;SDS011;61545;53.726;-0.444;2022-12-15T14:58:25;4.8;;;1.3;;
73315;SDS011;61545;53.726;-0.444;2022-12-15T15:03:17;6.1;;;1.3;;
73315;SDS011;61545;53.726;-0.444;2022-12-15T15:08:13;6.1;;;1.3;;
73315;SDS011;61545;53.726;-0.444;2022-12-15T15:13:16;6.0;;;1.2;;
73315;SDS011;61545;53.726;-0.444;2022-12-15T15:18:12;6.0;;;1.3;;
73315;SDS011;61545;53.726;-0.444;2022-12-15T15:23:15;7.1;;;2;;
73315;SDS011;61545;53.726;-0.444;2022-12-15T15:28:15;6.1;;;1.8;;
73315;SDS011;61545;53.726;-0.444;2022-12-15T15:33:12;5.3;;;1.6;;
73315;SDS011;61545;53.726;-0.444;2022-12-15T15:38:19;5.3;;;1.6;;
73315;SDS011;61545;53.726;-0.444;2022-12-15T15:43:12;7.1;;;1.7;;
73315;SDS011;61545;53.726;-0.444;2022-12-15T15:48:16;5.1;;;2.3;;
73315;SDS011;61545;53.726;-0.444;2022-12-15T15:53:15;4.5;;;1.1;;
73315;SDS011;61545;53.726;-0.444;2022-12-15T15:58:12;3.8;;;1;;
73315;SDS011;61545;53.726;-0.444;2022-12-15T16:03:12;7.5;;;1.4;;
73315;SDS011;61545;53.726;-0.444;2022-12-15T16:08:13;7.5;;;1.4;;
73315;SDS011;61545;53.726;-0.444;2022-12-15T16:13:14;11.3;;;2.4;;
73315;SDS011;61545;53.726;-0.444;2022-12-15T16:18:12;7.9;;;2.2;;
73315;SDS011;61545;53.726;-0.444;2022-12-15T16:23:13;9.8;;;2.9;;
73315;SDS011;61545;53.726;-0.444;2022-12-15T16:28:13;6.7;;;2.3;;
73315;SDS011;61545;53.726;-0.444;2022-12-15T16:33:12;10.8;;;4;;
73315;SDS011;61545;53.726;-0.444;2022-12-15T16:38:14;10.8;;;4;;
73315;SDS011;61545;53.726;-0.444;2022-12-15T16:43:13;9.0;;;2.9;;
73315;SDS011;61545;53.726;-0.444;2022-12-15T16:48:12;10.1;;;2.4;;
73315;SDS011;61545;53.726;-0.444;2022-12-15T16:53:13;5.8;;;1.7;;
73315;SDS011;61545;53.726;-0.444;2022-12-15T16:58:13;6.8;;;1.6;;
73315;SDS011;61545;53.726;-0.444;2022-12-15T17:03:12;5.7;;;1.4;;
73315;SDS011;61545;53.726;-0.444;2022-12-15T17:08:15;5.7;;;1.4;;
73315;SDS011;61545;53.726;-0.444;2022-12-15T17:13:18;6.8;;;2.1;;
73315;SDS011;61545;53.726;-0.444;2022-12-15T17:18:12;6.6;;;2;;
73315;SDS011;61545;53.726;-0.444;2022-12-15T17:23:13;7.9;;;2.3;;
73315;SDS011;61545;53.726;-0.444;2022-12-15T17:28:15;8.5;;;2.4;;
73315;SDS011;61545;53.726;-0.444;2022-12-15T17:33:16;9.8;;;3.2;;
73315;SDS011;61545;53.726;-0.444;2022-12-15T17:38:13;9.8;;;3.2;;
73315;SDS011;61545;53.726;-0.444;2022-12-15T17:43:13;9.3;;;2.8;;
73315;SDS011;61545;53.726;-0.444;2022-12-15T17:48:12;11.1;;;3.1;;
73315;SDS011;61545;53.726;-0.444;2022-12-15T17:53:12;9.3;;;2.4;;
73315;SDS011;61545;53.726;-0.444;2022-12-15T17:58:15;7.6;;;2.4;;
73315;SDS011;61545;53.726;-0.444;2022-12-15T18:03:12;21.1;;;7.1;;
73315;SDS011;61545;53.726;-0.444;2022-12-15T18:08:14;21.1;;;7.1;;
73315;SDS011;61545;53.726;-0.444;2022-12-15T18:13:14;33.9;;;12.8;;
73315;SDS011;61545;53.726;-0.444;2022-12-15T18:18:13;28.3;;;9.7;;
73315;SDS011;61545;53.726;-0.444;2022-12-15T18:23:12;12.9;;;4.9;;
73315;SDS011;61545;53.726;-0.444;2022-12-15T18:28:18;13.5;;;5.5;;
73315;SDS011;61545;53.726;-0.444;2022-12-15T18:33:12;24.3;;;8.3;;
73315;SDS011;61545;53.726;-0.444;2022-12-15T18:38:13;24.3;;;8.3;;
73315;SDS011;61545;53.726;-0.444;2022-12-15T18:43:13;23.4;;;9.3;;
73315;SDS011;61545;53.726;-0.444;2022-12-15T18:48:16;22.3;;;8.8;;
73315;SDS011;61545;53.726;-0.444;2022-12-15T18:53:14;26.4;;;10.1;;
73315;SDS011;61545;53.726;-0.444;2022-12-15T18:58:18;9.7;;;3.8;;
73315;SDS011;61545;53.726;-0.444;2022-12-15T19:03:12;6.7;;;2.2;;
73315;SDS011;61545;53.726;-0.444;2022-12-15T19:08:13;6.7;;;2.2;;
73315;SDS011;61545;53.726;-0.444;2022-12-15T19:13:12;6.1;;;1.8;;
73315;SDS011;61545;53.726;-0.444;2022-12-15T19:18:13;4.1;;;1.4;;
73315;SDS011;61545;53.726;-0.444;2022-12-15T19:23:12;7.5;;;2.8;;
73315;SDS011;61545;53.726;-0.444;2022-12-15T19:28:14;13.6;;;4.4;;
73315;SDS011;61545;53.726;-0.444;2022-12-15T19:33:13;8.4;;;3.6;;
73315;SDS011;61545;53.726;-0.444;2022-12-15T19:38:17;8.4;;;3.6;;
73315;SDS011;61545;53.726;-0.444;2022-12-15T19:43:13;6.7;;;2.3;;
73315;SDS011;61545;53.726;-0.444;2022-12-15T19:48:12;6.0;;;2.4;;
73315;SDS011;61545;53.726;-0.444;2022-12-15T19:53:15;3.8;;;1.6;;
73315;SDS011;61545;53.726;-0.444;2022-12-15T19:58:20;3.0;;;1.4;;
73315;SDS011;61545;53.726;-0.444;2022-12-15T20:03:12;4.4;;;1.2;;
73315;SDS011;61545;53.726;-0.444;2022-12-15T20:08:15;4.4;;;1.2;;
73315;SDS011;61545;53.726;-0.444;2022-12-15T20:13:12;4.4;;;1.6;;
73315;SDS011;61545;53.726;-0.444;2022-12-15T20:18:12;8.8;;;2.3;;
73315;SDS011;61545;53.726;-0.444;2022-12-15T20:23:14;11.1;;;3.6;;
73315;SDS011;61545;53.726;-0.444;2022-12-15T20:28:15;12.0;;;4.3;;
73315;SDS011;61545;53.726;-0.444;2022-12-15T20:33:12;9.0;;;2.8;;
73315;SDS011;61545;53.726;-0.444;2022-12-15T20:38:16;9.0;;;2.8;;
73315;SDS011;61545;53.726;-0.444;2022-12-15T20:43:14;6.7;;;2.3;;
73315;SDS011;61545;53.726;-0.444;2022-12-15T20:48:12;3.4;;;1.3;;
73315;SDS011;61545;53.726;-0.444;2022-12-15T20:53:14;6.7;;;1.5;;
73315;SDS011;61545;53.726;-0.444;2022-12-15T20:58:12;4.5;;;1.3;;
73315;SDS011;61545;53.726;-0.444;2022-12-15T21:03:17;3.1;;;1.8;;
73315;SDS011;61545;53.726;-0.444;2022-12-15T21:08:14;3.1;;;1.8;;
73315;SDS011;61545;53.726;-0.444;2022-12-15T21:13:14;58.4;;;27.2;;
73315;SDS011;61545;53.726;-0.444;2022-12-15T21:18:12;48.8;;;24.6;;
73315;SDS011;61545;53.726;-0.444;2022-12-15T21:23:16;24.5;;;13;;
73315;SDS011;61545;53.726;-0.444;2022-12-15T21:28:12;10.8;;;6.3;;
73315;SDS011;61545;53.726;-0.444;2022-12-15T21:33:12;11.9;;;6.5;;
73315;SDS011;61545;53.726;-0.444;2022-12-15T21:38:26;11.9;;;6.5;;
73315;SDS011;61545;53.726;-0.444;2022-12-15T21:43:12;14.1;;;7.3;;
73315;SDS011;61545;53.726;-0.444;2022-12-15T21:48:12;14.6;;;7.5;;
73315;SDS011;61545;53.726;-0.444;2022-12-15T21:53:12;15.8;;;7.6;;
73315;SDS011;61545;53.726;-0.444;2022-12-15T21:58:17;13.6;;;6.8;;
73315;SDS011;61545;53.726;-0.444;2022-12-15T22:03:12;11.5;;;5.5;;
73315;SDS011;61545;53.726;-0.444;2022-12-15T22:08:14;11.5;;;5.5;;
73315;SDS011;61545;53.726;-0.444;2022-12-15T22:13:15;11.8;;;6.4;;
73315;SDS011;61545;53.726;-0.444;2022-12-15T22:18:15;17.3;;;8.8;;
73315;SDS011;61545;53.726;-0.444;2022-12-15T22:23:13;18.5;;;10.1;;
73315;SDS011;61545;53.726;-0.444;2022-12-15T22:28:17;10.6;;;6.4;;
73315;SDS011;61545;53.726;-0.444;2022-12-15T22:33:13;6.6;;;4.2;;
73315;SDS011;61545;53.726;-0.444;2022-12-15T22:38:12;6.6;;;4.2;;
73315;SDS011;61545;53.726;-0.444;2022-12-15T22:43:17;9.7;;;4.5;;
73315;SDS011;61545;53.726;-0.444;2022-12-15T22:48:12;9.4;;;4.9;;
73315;SDS011;61545;53.726;-0.444;2022-12-15T22:53:12;11.7;;;5.4;;
73315;SDS011;61545;53.726;-0.444;2022-12-15T22:58:15;10.6;;;4.9;;
73315;SDS011;61545;53.726;-0.444;2022-12-15T23:03:12;9.7;;;5.2;;
73315;SDS011;61545;53.726;-0.444;2022-12-15T23:08:12;9.7;;;5.2;;
73315;SDS011;61545;53.726;-0.444;2022-12-15T23:13:12;9.9;;;5.1;;
73315;SDS011;61545;53.726;-0.444;2022-12-15T23:18:12;12.4;;;7.3;;
73315;SDS011;61545;53.726;-0.444;2022-12-15T23:23:12;18.3;;;7.4;;
73315;SDS011;61545;53.726;-0.444;2022-12-15T23:28:12;13.5;;;7.7;;
73315;SDS011;61545;53.726;-0.444;2022-12-15T23:33:12;10.6;;;6.2;;
73315;SDS011;61545;53.726;-0.444;2022-12-15T23:38:12;10.6;;;6.2;;
73315;SDS011;61545;53.726;-0.444;2022-12-15T23:43:12;10.0;;;5.4;;
73315;SDS011;61545;53.726;-0.444;2022-12-15T23:48:12;9.7;;;4.7;;
73315;SDS011;61545;53.726;-0.444;2022-12-15T23:53:12;10.3;;;5.5;;
73315;SDS011;61545;53.726;-0.444;2022-12-15T23:58:12;8.3;;;4.4;;
